Time;durP1;ratioP1;P1;durP2;ratioP2;P2;SDS_P1;SDS_P2;PMS_P1;PMS_P2;Temp;Humidity;BMP_temperature;BMP_pressure;BME280_temperature;BME280_humidity;BME280_pressure;Samples;Min_cycle;Max_cycle;Signal;HPM_P1;HPM_P2
2022/11/03 00:00:32;;;;;;;2.80;1.90;;;18.00;65.60;19.00;100894.00;;;;5007762;28;20668;-44
2022/11/03 00:02:58;;;;;;;2.03;1.87;;;18.00;65.60;19.00;100890.00;;;;5007530;28;20283;-46
2022/11/03 00:08:25;;;;;;;2.00;1.80;;;17.90;65.60;19.00;100891.00;;;;4968918;28;20224;-44
2022/11/03 00:10:50;;;;;;;2.63;1.90;;;17.90;65.70;19.00;100895.00;;;;5002373;28;20215;-46
2022/11/03 00:13:16;;;;;;;2.20;1.80;;;17.90;65.60;19.00;100891.00;;;;5010590;28;20199;-46
2022/11/03 00:15:48;;;;;;;2.20;1.90;;;17.90;65.60;18.70;100894.00;;;;5010909;28;20665;-45
2022/11/03 00:18:14;;;;;;;2.13;1.80;;;17.90;65.60;18.90;100891.00;;;;5010913;28;20187;-45
2022/11/03 00:20:40;;;;;;;1.80;1.70;;;17.90;65.70;18.90;100873.00;;;;5010806;28;20176;-46
2022/11/03 00:23:06;;;;;;;2.43;1.80;;;17.90;65.70;18.90;100871.00;;;;5010667;28;20754;-46
2022/11/03 00:25:32;;;;;;;2.97;1.87;;;17.90;65.60;18.90;100887.00;;;;5010843;28;20206;-44
2022/11/03 00:27:58;;;;;;;2.03;1.70;;;17.80;65.60;18.90;100884.00;;;;5010839;28;20186;-47
2022/11/03 00:30:24;;;;;;;2.60;1.80;;;17.80;65.60;18.90;100877.00;;;;5010780;28;20199;-45
2022/11/03 00:32:49;;;;;;;2.33;1.77;;;17.80;65.60;18.90;100864.00;;;;5010429;28;20545;-44
2022/11/03 00:35:15;;;;;;;2.10;1.77;;;17.80;65.60;18.90;100858.00;;;;5010675;28;20183;-44
2022/11/03 00:37:41;;;;;;;2.40;1.80;;;17.80;66.50;18.90;100858.00;;;;5010848;28;20546;-45
2022/11/03 00:40:09;;;;;;;2.30;1.80;;;17.80;65.60;18.90;100846.00;;;;5010499;28;20216;-46
2022/11/03 00:42:36;;;;;;;2.37;1.70;;;17.80;65.80;18.80;100863.00;;;;5010392;28;20284;-46
2022/11/03 00:45:02;;;;;;;3.10;1.93;;;17.80;65.70;18.90;100853.00;;;;5010727;28;20227;-44
2022/11/03 00:47:27;;;;;;;2.83;1.90;;;17.80;65.70;18.80;100849.00;;;;5010664;28;20184;-45
2022/11/03 00:49:53;;;;;;;2.33;2.00;;;17.70;65.60;18.80;100845.00;;;;5010191;28;20172;-45
2022/11/03 00:52:19;;;;;;;2.00;1.80;;;17.70;65.60;18.80;100834.00;;;;4992774;28;20291;-45
2022/11/03 00:54:45;;;;;;;2.93;2.03;;;17.80;65.80;18.80;100846.00;;;;5011373;28;20197;-44
2022/11/03 00:57:10;;;;;;;2.17;1.93;;;17.70;65.60;18.80;100844.00;;;;5012026;28;20203;-45
2022/11/03 00:59:36;;;;;;;2.37;1.90;;;17.70;65.70;18.50;100755.00;;;;5012035;28;20184;-46
2022/11/03 01:02:02;;;;;;;2.30;1.90;;;17.70;65.60;18.80;100834.00;;;;5009772;28;20567;-46
2022/11/03 01:07:19;;;;;;;2.20;1.70;;;17.70;65.70;18.70;100832.00;;;;4977107;28;20290;-45
2022/11/03 01:09:44;;;;;;;2.00;1.80;;;17.70;65.80;18.70;100848.00;;;;4976347;28;20178;-45
2022/11/03 01:12:15;;;;;;;2.03;1.83;;;17.70;65.80;18.70;100844.00;;;;5009659;28;20206;-45
2022/11/03 01:14:46;;;;;;;2.20;1.97;;;17.70;65.80;18.70;100843.00;;;;4975583;28;20176;-46
2022/11/03 01:17:21;;;;;;;2.27;1.70;;;17.70;65.80;18.70;100836.00;;;;5009993;28;20191;-45
2022/11/03 01:19:47;;;;;;;2.30;1.70;;;17.60;65.80;18.70;100826.00;;;;5009776;28;20232;-45
2022/11/03 01:22:13;;;;;;;1.60;1.50;;;17.70;65.90;18.70;100824.00;;;;5009700;28;20671;-46
2022/11/03 01:24:42;;;;;;;1.93;1.80;;;17.60;65.80;18.70;100747.00;;;;5009840;28;20179;-45
2022/11/03 01:27:13;;;;;;;2.47;1.90;;;17.60;65.80;18.70;100819.00;;;;4992897;28;20286;-44
2022/11/03 01:29:40;;;;;;;2.00;1.80;;;17.60;65.90;18.70;100822.00;;;;4992750;28;20195;-47
2022/11/03 01:32:05;;;;;;;2.80;1.90;;;17.60;65.80;18.70;100807.00;;;;5009481;28;20241;-47
2022/11/03 01:34:31;;;;;;;2.00;1.80;;;17.60;65.80;18.70;100803.00;;;;5009532;28;20261;-44
2022/11/03 01:36:57;;;;;;;1.80;1.70;;;17.60;65.80;18.70;100791.00;;;;5009337;28;20179;-44
2022/11/03 01:39:22;;;;;;;2.20;1.80;;;17.60;65.70;18.70;100796.00;;;;5009021;28;20475;-46
2022/11/03 01:41:49;;;;;;;1.87;1.73;;;17.60;65.70;18.70;100797.00;;;;5009394;28;20695;-45
2022/11/03 01:44:15;;;;;;;2.57;1.90;;;17.60;65.70;18.60;100797.00;;;;4992157;28;20186;-47
2022/11/03 01:46:50;;;;;;;2.47;2.10;;;17.60;65.70;18.70;100793.00;;;;5009355;28;20179;-46
2022/11/03 01:49:33;;;;;;;2.17;1.80;;;17.60;65.80;18.60;100779.00;;;;4991812;28;20175;-45
2022/11/03 01:52:25;;;;;;;1.83;1.67;;;17.60;65.70;18.60;100781.00;;;;4993062;28;20231;-45
2022/11/03 01:54:58;;;;;;;2.60;2.00;;;17.60;65.80;18.60;100782.00;;;;5009189;28;20205;-46
2022/11/03 01:57:29;;;;;;;2.77;2.00;;;17.60;65.70;18.60;100777.00;;;;5009219;28;20177;-46
2022/11/03 01:59:54;;;;;;;2.47;1.90;;;17.60;65.80;18.60;100776.00;;;;4975755;28;20246;-45
2022/11/03 02:02:20;;;;;;;2.37;1.87;;;17.50;65.60;18.60;100771.00;;;;4991259;28;20683;-46
2022/11/03 02:04:46;;;;;;;1.70;1.60;;;17.50;65.70;18.60;100775.00;;;;5008975;28;20613;-46
2022/11/03 02:07:28;;;;;;;2.40;1.93;;;17.60;65.70;18.60;100773.00;;;;4991381;28;20183;-46
2022/11/03 02:09:54;;;;;;;2.73;2.00;;;17.50;65.70;18.60;100784.00;;;;4976623;28;20179;-46
2022/11/03 02:12:20;;;;;;;2.60;2.00;;;17.50;65.70;18.50;100758.00;;;;5008791;28;20651;-45
2022/11/03 02:14:57;;;;;;;2.17;1.90;;;17.50;65.80;18.60;100744.00;;;;4991441;28;20652;-45
2022/11/03 02:17:25;;;;;;;2.30;1.80;;;17.50;65.80;18.50;100742.00;;;;4975794;28;20251;-46
2022/11/03 02:19:59;;;;;;;2.83;2.00;;;17.50;65.80;18.50;100752.00;;;;4975497;28;20254;-46
2022/11/03 02:22:33;;;;;;;1.73;1.63;;;17.50;65.80;18.50;100744.00;;;;4975171;28;20290;-44
2022/11/03 02:25:55;;;;;;;2.33;1.90;;;17.50;65.90;18.50;100753.00;;;;4992088;28;20185;-45
2022/11/03 02:28:26;;;;;;;2.17;1.80;;;17.50;65.90;18.50;100741.00;;;;5008843;28;20670;-46
2022/11/03 02:31:15;;;;;;;2.00;1.80;;;17.50;66.00;18.50;100731.00;;;;4975155;28;20483;-45
2022/11/03 02:33:50;;;;;;;2.23;1.80;;;17.50;66.00;18.50;100729.00;;;;4975037;28;20193;-45
2022/11/03 02:36:21;;;;;;;2.40;2.10;;;17.40;65.80;18.50;100725.00;;;;4971620;28;20171;-47
2022/11/03 02:38:57;;;;;;;2.40;1.83;;;17.50;66.00;18.50;100711.00;;;;4971598;28;20200;-47
2022/11/03 02:41:23;;;;;;;2.23;1.77;;;17.50;65.90;18.50;100719.00;;;;4971444;28;20678;-45
2022/11/03 02:43:49;;;;;;;1.90;1.80;;;17.50;65.90;18.50;100702.00;;;;4971506;28;20200;-46
2022/11/03 02:46:15;;;;;;;2.17;1.87;;;17.50;66.00;18.50;100707.00;;;;4971081;28;20215;-46
2022/11/03 02:48:40;;;;;;;2.50;2.00;;;17.50;66.00;18.50;100715.00;;;;4971322;28;20198;-46
2022/11/03 02:51:06;;;;;;;2.20;1.90;;;17.40;65.80;18.50;100706.00;;;;4988794;28;20230;-46
2022/11/03 02:53:41;;;;;;;2.37;1.77;;;17.40;65.80;18.50;100697.00;;;;4988339;28;20200;-46
2022/11/03 02:56:19;;;;;;;1.70;1.60;;;17.40;65.90;18.50;100686.00;;;;4972115;28;20250;-45
2022/11/03 02:59:00;;;;;;;1.77;1.53;;;17.40;65.80;18.50;100680.00;;;;4972858;28;20625;-45
2022/11/03 03:01:33;;;;;;;2.43;2.00;;;17.40;65.80;18.50;100679.00;;;;4971358;28;20653;-44
2022/11/03 03:04:01;;;;;;;1.83;1.73;;;17.40;65.80;18.50;100666.00;;;;4971734;28;20160;-45
2022/11/03 03:06:36;;;;;;;3.03;1.67;;;17.40;65.80;18.50;100668.00;;;;4971130;28;20183;-46
2022/11/03 03:09:05;;;;;;;2.47;1.83;;;17.40;65.90;18.50;100671.00;;;;4971358;28;20254;-44
2022/11/03 03:11:35;;;;;;;2.20;1.77;;;17.40;66.00;18.50;100678.00;;;;4970962;28;20240;-44
2022/11/03 03:14:08;;;;;;;2.20;1.90;;;17.40;66.00;18.40;100659.00;;;;4971564;28;20582;-45
2022/11/03 03:16:44;;;;;;;2.33;1.70;;;17.40;66.00;18.40;100670.00;;;;4971210;28;20163;-46
2022/11/03 03:19:53;;;;;;;3.90;1.80;;;17.30;65.90;18.40;100663.00;;;;4972271;28;20159;-45
2022/11/03 03:22:29;;;;;;;2.47;1.73;;;17.40;66.00;18.40;100652.00;;;;4972711;28;20697;-45
2022/11/03 03:25:11;;;;;;;3.00;2.10;;;17.40;66.10;18.40;100661.00;;;;4970945;28;20247;-46
2022/11/03 03:27:40;;;;;;;4.70;1.83;;;17.30;66.00;18.40;100654.00;;;;4970880;28;20605;-47
2022/11/03 03:30:06;;;;;;;3.20;2.10;;;17.30;66.00;18.40;100626.00;;;;4971263;28;20197;-46
2022/11/03 03:32:39;;;;;;;1.97;1.73;;;17.30;66.00;18.40;100637.00;;;;4970776;28;20207;-47
2022/11/03 03:35:07;;;;;;;3.73;1.83;;;17.30;66.10;18.40;100655.00;;;;4971038;28;20289;-46
2022/11/03 03:37:34;;;;;;;2.00;1.70;;;17.30;66.10;18.40;100652.00;;;;4954651;28;20178;-46
2022/11/03 03:40:02;;;;;;;1.93;1.60;;;17.30;66.10;18.40;100634.00;;;;4973696;28;20266;-45
2022/11/03 03:42:28;;;;;;;3.03;2.00;;;17.30;66.20;18.40;100647.00;;;;4974719;28;20188;-46
2022/11/03 03:44:53;;;;;;;2.53;1.93;;;17.30;66.90;18.30;100646.00;;;;4974619;28;20172;-45
2022/11/03 03:47:27;;;;;;;3.27;2.10;;;17.30;66.00;18.40;100639.00;;;;4974551;28;20206;-46
2022/11/03 03:49:53;;;;;;;4.07;1.80;;;17.30;66.10;18.40;100637.00;;;;4992161;28;20222;-47
2022/11/03 03:52:19;;;;;;;3.20;1.80;;;17.30;66.20;18.40;100637.00;;;;4991725;28;20233;-46
2022/11/03 03:54:44;;;;;;;4.07;1.90;;;17.30;66.10;18.40;100636.00;;;;4992101;28;20221;-46
2022/11/03 03:57:15;;;;;;;6.13;2.10;;;17.30;65.90;18.40;100622.00;;;;4974356;28;20700;-45
2022/11/03 03:59:44;;;;;;;3.70;1.90;;;17.30;65.90;18.40;100604.00;;;;4980512;28;20202;-44
2022/11/03 04:02:11;;;;;;;2.00;1.80;;;17.30;65.90;18.40;100617.00;;;;5011086;28;20679;-47
2022/11/03 04:04:36;;;;;;;3.33;1.90;;;17.30;66.00;18.30;100615.00;;;;5011265;28;20178;-45
2022/11/03 04:09:47;;;;;;;2.00;1.80;;;17.20;65.90;18.30;100598.00;;;;5011364;28;20165;-45
2022/11/03 04:23:14;;;;;;;2.90;1.90;;;17.20;65.60;18.30;100597.00;;;;5010483;28;20285;-45
2022/11/03 04:25:40;;;;;;;3.63;2.17;;;17.20;65.60;18.30;100587.00;;;;4993290;28;20221;-45
2022/11/03 04:28:13;;;;;;;2.47;2.00;;;17.20;65.60;18.30;100583.00;;;;4961277;28;20179;-46
2022/11/03 04:30:39;;;;;;;3.33;2.00;;;17.20;65.50;18.20;100583.00;;;;5010794;28;20198;-45
2022/11/03 04:33:15;;;;;;;2.40;1.90;;;17.20;65.50;18.20;100577.00;;;;5010426;28;20192;-46
2022/11/03 04:35:43;;;;;;;4.30;2.30;;;17.20;65.50;18.20;100588.00;;;;4994295;28;20174;-46
2022/11/03 04:38:14;;;;;;;3.00;2.10;;;17.20;65.50;18.20;100574.00;;;;4993372;28;20178;-47
2022/11/03 04:40:45;;;;;;;5.43;2.10;;;17.10;65.40;18.20;100591.00;;;;5010434;28;20195;-46
2022/11/03 04:43:17;;;;;;;3.47;2.00;;;17.10;65.20;18.20;100578.00;;;;4992411;28;20193;-47
2022/11/03 04:45:44;;;;;;;3.00;1.90;;;17.10;65.40;18.20;100579.00;;;;5010735;28;20183;-44
2022/11/03 04:48:20;;;;;;;2.97;2.00;;;17.10;65.10;18.20;100580.00;;;;5011576;28;20171;-46
2022/11/03 04:50:47;;;;;;;3.13;2.00;;;17.10;65.10;18.20;100579.00;;;;4994785;28;20725;-44
2022/11/03 04:53:17;;;;;;;3.47;2.10;;;17.10;65.20;18.20;100574.00;;;;4993826;28;20194;-45
2022/11/03 04:55:44;;;;;;;2.60;2.10;;;17.10;65.10;18.20;100565.00;;;;4994354;28;20195;-45
2022/11/03 04:58:23;;;;;;;3.70;2.10;;;17.10;65.10;18.20;100565.00;;;;5011486;28;20205;-46
2022/11/03 05:00:51;;;;;;;5.13;2.37;;;17.10;65.10;18.20;100559.00;;;;5011463;28;20399;-45
2022/11/03 05:03:22;;;;;;;3.23;2.10;;;17.10;65.10;18.20;100565.00;;;;4991076;28;20208;-44
2022/11/03 05:05:48;;;;;;;4.67;2.10;;;17.10;65.10;18.20;100560.00;;;;4993411;28;20235;-45
2022/11/03 05:08:15;;;;;;;2.70;2.20;;;17.10;65.20;18.20;100560.00;;;;5010639;28;20183;-45
2022/11/03 05:10:40;;;;;;;3.13;1.93;;;17.10;65.20;18.20;100553.00;;;;4993394;28;20254;-45
2022/11/03 05:13:23;;;;;;;3.40;2.30;;;17.10;65.20;18.20;100548.00;;;;5010271;28;20640;-45
2022/11/03 05:15:50;;;;;;;3.50;2.07;;;17.10;65.40;18.20;100558.00;;;;5010803;28;20168;-44
2022/11/03 05:18:24;;;;;;;2.30;2.10;;;17.10;65.40;18.20;100544.00;;;;4993212;28;20171;-44
2022/11/03 05:20:58;;;;;;;3.77;2.50;;;17.10;65.40;18.20;100534.00;;;;4993094;28;20243;-44
2022/11/03 05:23:24;;;;;;;3.20;2.00;;;17.10;65.30;18.20;100532.00;;;;4992878;28;20192;-43
2022/11/03 05:25:51;;;;;;;3.13;2.23;;;17.00;65.10;18.20;100507.00;;;;5010581;28;20193;-47
2022/11/03 05:28:32;;;;;;;3.30;2.00;;;17.00;65.10;18.10;100506.00;;;;4993160;28;20183;-45
2022/11/03 05:30:58;;;;;;;3.70;2.20;;;17.00;65.20;18.10;100505.00;;;;4992723;28;20193;-45
2022/11/03 05:33:32;;;;;;;3.67;2.27;;;17.00;65.20;18.10;100516.00;;;;5009635;28;20244;-44
2022/11/03 05:36:04;;;;;;;2.90;1.97;;;17.00;65.10;17.90;100505.00;;;;5010375;28;20177;-45
2022/11/03 05:38:31;;;;;;;2.97;2.07;;;17.00;65.20;18.10;100500.00;;;;5010113;28;20180;-45
2022/11/03 05:40:57;;;;;;;3.60;2.27;;;17.00;65.10;18.10;100487.00;;;;4992218;28;20601;-44
2022/11/03 05:43:23;;;;;;;3.20;2.00;;;16.90;64.90;18.10;100496.00;;;;4992346;28;20198;-45
2022/11/03 05:45:50;;;;;;;4.03;2.33;;;17.00;65.10;18.10;100490.00;;;;5010211;28;20210;-44
2022/11/03 05:48:30;;;;;;;3.77;2.27;;;17.00;65.00;18.10;100498.00;;;;4992565;28;20187;-46
2022/11/03 05:50:59;;;;;;;3.83;2.20;;;17.00;65.00;18.10;100493.00;;;;4992070;28;20199;-45
2022/11/03 05:53:37;;;;;;;4.10;2.30;;;16.90;65.70;18.10;100495.00;;;;5009740;28;20379;-45
2022/11/03 05:56:04;;;;;;;1.93;1.80;;;17.00;65.00;18.10;100502.00;;;;5009790;28;20202;-45
2022/11/03 05:58:36;;;;;;;2.93;2.20;;;17.00;65.00;18.00;100504.00;;;;5010346;28;20572;-45
2022/11/03 06:01:10;;;;;;;3.30;1.90;;;16.90;64.90;18.00;100488.00;;;;5009126;28;20188;-45
2022/11/03 06:03:36;;;;;;;4.87;2.20;;;16.90;64.90;18.00;100495.00;;;;4992594;28;20194;-46
2022/11/03 06:06:02;;;;;;;3.47;2.30;;;16.90;64.90;18.00;100489.00;;;;5009972;28;20235;-44
2022/11/03 06:08:33;;;;;;;2.57;2.13;;;16.90;64.90;18.00;100491.00;;;;4992266;28;20185;-46
2022/11/03 06:10:58;;;;;;;4.73;2.50;;;16.90;64.90;18.00;100476.00;;;;4991472;28;20835;-46
2022/11/03 06:13:30;;;;;;;2.87;2.13;;;16.90;64.90;18.00;100471.00;;;;5009315;28;20194;-44
2022/11/03 06:16:02;;;;;;;3.00;2.00;;;16.90;64.90;18.00;100461.00;;;;4992499;28;20167;-45
2022/11/03 06:18:34;;;;;;;2.27;1.80;;;16.90;64.80;18.00;100453.00;;;;5009417;28;20168;-47
2022/11/03 06:21:12;;;;;;;3.37;2.20;;;16.90;64.80;18.00;100465.00;;;;4992711;28;20209;-45
2022/11/03 06:23:37;;;;;;;2.63;2.13;;;16.90;64.80;18.00;100463.00;;;;4992398;28;20245;-44
2022/11/03 06:26:03;;;;;;;4.30;2.30;;;16.90;64.70;18.00;100468.00;;;;4992141;28;20173;-44
2022/11/03 06:28:33;;;;;;;2.80;2.13;;;16.90;64.80;18.00;100446.00;;;;4976039;28;20185;-45
2022/11/03 06:30:59;;;;;;;2.60;1.97;;;16.90;64.70;18.00;100454.00;;;;4975644;28;20255;-45
2022/11/03 06:33:29;;;;;;;2.57;2.20;;;16.90;64.80;18.00;100442.00;;;;5008957;28;20198;-45
2022/11/03 06:36:10;;;;;;;3.07;1.90;;;16.90;64.80;18.00;100444.00;;;;4992388;28;20687;-46
2022/11/03 06:38:36;;;;;;;3.90;2.40;;;16.80;64.80;17.90;100434.00;;;;5009300;28;20162;-46
2022/11/03 06:41:01;;;;;;;3.60;2.30;;;16.80;64.90;17.90;100433.00;;;;5008238;28;20184;-45
2022/11/03 06:43:42;;;;;;;2.60;2.00;;;16.80;64.80;17.90;100428.00;;;;4991594;28;20219;-46
2022/11/03 06:46:22;;;;;;;3.93;2.10;;;16.80;64.80;17.90;100441.00;;;;4992093;28;20263;-44
2022/11/03 06:48:48;;;;;;;2.83;2.20;;;16.80;64.80;17.90;100342.00;;;;4992313;28;20650;-45
2022/11/03 06:51:21;;;;;;;3.10;2.23;;;16.80;64.80;17.90;100411.00;;;;4991206;28;20549;-44
2022/11/03 06:53:51;;;;;;;4.10;2.13;;;16.80;64.90;17.80;100417.00;;;;5009117;28;20203;-44
2022/11/03 06:56:21;;;;;;;3.67;2.30;;;16.80;64.90;17.80;100384.00;;;;4992208;28;20234;-45
2022/11/03 06:58:47;;;;;;;2.73;1.97;;;16.70;64.80;17.80;100408.00;;;;4991918;28;20170;-45
2022/11/03 07:01:33;;;;;;;2.93;2.10;;;16.80;64.90;17.80;100411.00;;;;4990429;28;20229;-45
2022/11/03 07:04:27;;;;;;;3.10;2.27;;;16.80;64.90;17.80;100399.00;;;;5008386;28;20218;-46
2022/11/03 07:06:53;;;;;;;3.10;2.10;;;16.80;64.90;17.80;100395.00;;;;4987459;28;20197;-45
2022/11/03 07:09:21;;;;;;;2.77;2.00;;;16.70;64.80;17.80;100400.00;;;;4991373;28;20176;-46
2022/11/03 07:11:52;;;;;;;2.60;2.03;;;16.70;64.70;17.80;100377.00;;;;5008194;28;20223;-46
2022/11/03 07:14:25;;;;;;;3.40;2.40;;;16.70;64.70;17.80;100394.00;;;;4993949;28;20629;-45
2022/11/03 07:16:55;;;;;;;2.93;2.10;;;16.70;64.70;17.80;100382.00;;;;4995297;28;20259;-45
2022/11/03 07:19:29;;;;;;;3.80;2.27;;;16.70;64.70;17.80;100386.00;;;;4996104;28;20183;-45
2022/11/03 07:21:57;;;;;;;2.23;1.80;;;16.70;64.70;17.80;100386.00;;;;4994381;28;20218;-45
2022/11/03 07:24:33;;;;;;;2.63;2.20;;;16.70;64.80;17.80;100384.00;;;;4995051;28;20184;-44
2022/11/03 07:27:20;;;;;;;2.53;2.10;;;16.70;64.80;17.80;100399.00;;;;4996927;28;20167;-46
2022/11/03 07:29:47;;;;;;;3.30;2.10;;;16.70;64.80;17.80;100395.00;;;;5013161;28;20223;-46
2022/11/03 07:32:21;;;;;;;3.00;2.13;;;16.70;64.80;17.80;100390.00;;;;4993929;28;20204;-46
2022/11/03 07:34:47;;;;;;;2.90;2.20;;;16.70;64.70;17.70;100394.00;;;;4995651;28;20720;-46
2022/11/03 07:37:23;;;;;;;2.63;2.10;;;16.70;64.70;17.70;100381.00;;;;4995694;28;20176;-45
2022/11/03 07:39:49;;;;;;;3.83;2.30;;;16.70;64.80;17.70;100384.00;;;;4994809;28;20183;-45
2022/11/03 07:42:22;;;;;;;2.30;1.83;;;16.70;64.80;17.70;100365.00;;;;5011743;28;20245;-46
2022/11/03 07:44:48;;;;;;;2.73;2.00;;;16.70;64.80;17.70;100373.00;;;;4994985;28;20177;-46
2022/11/03 07:47:27;;;;;;;2.30;1.90;;;16.60;64.70;17.70;100377.00;;;;4994989;28;20682;-46
2022/11/03 07:49:56;;;;;;;2.73;1.90;;;16.60;64.70;17.70;100372.00;;;;5012209;28;20641;-45
2022/11/03 07:52:23;;;;;;;3.30;2.10;;;16.60;64.70;17.70;100366.00;;;;5011930;28;20214;-45
2022/11/03 07:54:50;;;;;;;2.50;2.10;;;16.60;64.70;17.70;100364.00;;;;5012180;28;20178;-45
2022/11/03 07:57:29;;;;;;;3.30;2.20;;;16.60;64.60;17.70;100353.00;;;;5012404;28;20262;-45
2022/11/03 08:00:03;;;;;;;2.30;1.90;;;16.60;64.70;17.70;100353.00;;;;4995628;28;20215;-45
2022/11/03 08:02:48;;;;;;;3.10;2.20;;;16.60;64.60;17.70;100356.00;;;;5011300;28;20200;-45
2022/11/03 08:05:14;;;;;;;2.87;2.23;;;16.60;64.60;17.70;100346.00;;;;5011729;28;20184;-47
2022/11/03 08:07:40;;;;;;;3.40;2.23;;;16.60;64.70;17.70;100345.00;;;;5012142;28;20206;-45
2022/11/03 08:10:06;;;;;;;3.27;2.20;;;16.60;64.70;17.70;100344.00;;;;5011800;28;20410;-44
2022/11/03 08:12:32;;;;;;;2.83;2.10;;;16.60;64.70;17.70;100344.00;;;;5011544;28;20218;-46
2022/11/03 08:14:58;;;;;;;2.20;2.00;;;16.60;64.60;17.70;100338.00;;;;5011936;28;20571;-46
2022/11/03 08:17:23;;;;;;;3.20;2.00;;;16.70;64.70;17.70;100342.00;;;;5012011;28;20169;-46
2022/11/03 08:19:49;;;;;;;2.90;2.20;;;16.60;64.60;17.70;100342.00;;;;5011640;28;20591;-47
2022/11/03 08:22:15;;;;;;;3.33;2.40;;;16.60;64.60;17.70;100331.00;;;;5011441;28;20224;-46
2022/11/03 08:24:40;;;;;;;4.07;2.20;;;16.60;64.60;17.70;100332.00;;;;5011362;28;20172;-46
2022/11/03 08:27:06;;;;;;;3.63;2.20;;;16.60;64.60;17.70;100321.00;;;;5011418;28;20176;-45
2022/11/03 08:29:32;;;;;;;2.87;2.13;;;16.60;64.60;17.70;100338.00;;;;5011162;28;20235;-45
2022/11/03 08:31:58;;;;;;;2.77;2.10;;;16.60;64.60;17.70;100318.00;;;;5010397;28;20208;-45
2022/11/03 08:34:23;;;;;;;2.97;2.10;;;16.60;64.60;17.70;100306.00;;;;5011556;28;20169;-46
2022/11/03 08:36:49;;;;;;;2.77;2.10;;;16.60;64.60;17.70;100303.00;;;;5011523;28;20787;-46
2022/11/03 08:39:15;;;;;;;3.10;2.20;;;16.60;64.60;17.70;100307.00;;;;5011245;28;20166;-46
2022/11/03 08:41:40;;;;;;;3.17;2.20;;;16.60;64.70;17.70;100295.00;;;;5007320;28;20176;-46
2022/11/03 08:44:06;;;;;;;3.87;2.33;;;16.60;64.60;17.70;100304.00;;;;4932053;28;20203;-45
2022/11/03 08:46:32;;;;;;;3.37;2.20;;;16.60;64.70;17.70;100313.00;;;;5009816;28;20363;-45
2022/11/03 08:48:58;;;;;;;6.70;2.37;;;16.60;64.70;17.70;100300.00;;;;5016372;28;20563;-46
2022/11/03 08:51:23;;;;;;;5.30;2.40;;;16.60;64.80;17.70;100301.00;;;;5010071;28;20195;-45
2022/11/03 08:53:52;;;;;;;18.33;2.70;;;16.70;65.10;17.70;100300.00;;;;5009799;28;20189;-47
2022/11/03 08:56:19;;;;;;;9.43;2.57;;;16.70;65.70;17.70;100288.00;;;;5010489;28;20160;-46
2022/11/03 08:58:45;;;;;;;8.20;2.50;;;16.70;65.20;17.80;100292.00;;;;4976646;28;20182;-43
2022/11/03 09:01:11;;;;;;;5.10;2.50;;;16.70;65.40;17.50;100297.00;;;;5010503;28;20173;-45
2022/11/03 09:03:37;;;;;;;6.63;2.50;;;16.80;65.40;17.80;100275.00;;;;5030254;28;20195;-45
2022/11/03 09:06:03;;;;;;;6.17;2.40;;;16.90;65.40;17.90;100272.00;;;;5030795;28;20254;-45
2022/11/03 09:08:29;;;;;;;3.77;2.20;;;17.00;65.20;17.90;100265.00;;;;5030574;28;20274;-45
2022/11/03 09:10:55;;;;;;;7.67;2.53;;;17.10;65.10;18.00;100268.00;;;;5030333;28;20207;-45
2022/11/03 09:13:21;;;;;;;4.07;2.50;;;17.30;65.00;18.10;100254.00;;;;5030845;28;20218;-45
2022/11/03 09:15:47;;;;;;;4.20;2.33;;;17.50;64.90;18.20;100253.00;;;;5030709;28;20251;-45
2022/11/03 09:18:12;;;;;;;4.93;2.37;;;17.60;64.60;18.20;100237.00;;;;5028604;28;20253;-46
2022/11/03 09:20:39;;;;;;;5.30;2.30;;;17.70;64.40;18.30;100238.00;;;;5010248;28;20640;-46
2022/11/03 09:23:04;;;;;;;4.67;1.90;;;17.80;64.70;18.40;100231.00;;;;5010089;28;20194;-45
2022/11/03 09:25:30;;;;;;;2.63;2.03;;;18.00;64.60;18.50;100227.00;;;;5009708;28;20695;-45
2022/11/03 09:27:56;;;;;;;4.07;2.30;;;18.10;64.40;18.60;100228.00;;;;5010061;28;20234;-45
2022/11/03 09:30:22;;;;;;;4.37;2.43;;;18.20;64.80;18.70;100209.00;;;;5010331;28;20225;-44
2022/11/03 09:32:48;;;;;;;3.90;2.47;;;18.30;65.60;18.70;100215.00;;;;4991725;28;20246;-45
2022/11/03 09:35:13;;;;;;;5.23;2.13;;;18.30;66.50;18.80;100200.00;;;;5010339;28;20248;-45
2022/11/03 09:37:39;;;;;;;4.93;2.40;;;18.30;67.20;18.90;100199.00;;;;5008945;28;20169;-46
2022/11/03 09:40:08;;;;;;;3.83;2.20;;;18.40;67.70;18.90;100183.00;;;;5010073;28;20174;-45
2022/11/03 09:42:34;;;;;;;6.27;2.47;;;18.40;67.70;18.90;100180.00;;;;4945434;28;20317;-46
2022/11/03 09:44:59;;;;;;;6.80;2.57;;;18.40;67.70;18.90;100170.00;;;;4992705;28;20179;-45
2022/11/03 09:47:38;;;;;;;7.13;2.20;;;18.40;68.20;19.00;100160.00;;;;4977143;28;20277;-45
2022/11/03 09:50:05;;;;;;;5.53;2.00;;;18.40;67.90;19.00;100154.00;;;;4978859;28;20289;-44
2022/11/03 09:52:31;;;;;;;4.83;2.40;;;18.50;67.80;19.10;100161.00;;;;5009404;28;20204;-45
2022/11/03 09:54:58;;;;;;;5.40;2.30;;;18.40;67.70;19.10;100154.00;;;;4976455;28;20197;-47
2022/11/03 09:57:26;;;;;;;7.73;2.60;;;18.40;68.40;19.10;100145.00;;;;4992451;28;20175;-46
2022/11/03 09:59:51;;;;;;;5.43;2.33;;;18.50;69.00;19.10;100147.00;;;;4992564;28;20183;-43
2022/11/03 10:02:28;;;;;;;6.27;2.63;;;18.50;68.80;19.20;100145.00;;;;5010347;28;20812;-46
2022/11/03 10:04:56;;;;;;;9.20;2.33;;;18.50;68.70;19.20;100133.00;;;;5011645;28;20162;-45
2022/11/03 10:07:22;;;;;;;7.03;2.30;;;18.40;68.90;19.20;100142.00;;;;4976472;28;20179;-46
2022/11/03 10:09:50;;;;;;;5.17;2.37;;;18.50;68.80;19.20;100125.00;;;;4992319;28;20171;-46
2022/11/03 10:12:15;;;;;;;6.23;2.40;;;18.40;68.60;19.20;100110.00;;;;5009273;28;20294;-44
2022/11/03 10:14:42;;;;;;;6.90;2.40;;;18.40;68.70;19.20;100103.00;;;;4975980;28;20321;-45
2022/11/03 10:17:13;;;;;;;5.87;2.40;;;18.40;68.50;19.20;100107.00;;;;5008962;28;20229;-45
2022/11/03 10:19:39;;;;;;;5.13;2.40;;;18.40;68.40;19.20;100081.00;;;;5008520;28;20724;-44
2022/11/03 10:22:06;;;;;;;6.53;2.50;;;18.40;68.50;19.20;100092.00;;;;4991495;28;20198;-45
2022/11/03 10:24:31;;;;;;;7.30;2.20;;;18.40;68.70;19.20;100074.00;;;;4991801;28;20178;-46
2022/11/03 10:26:57;;;;;;;6.07;2.43;;;18.40;68.80;19.20;100084.00;;;;5009255;28;20179;-46
2022/11/03 10:29:26;;;;;;;6.63;2.37;;;18.40;68.60;19.20;100094.00;;;;4992235;28;20551;-48
2022/11/03 10:31:55;;;;;;;6.83;2.40;;;18.40;68.40;19.20;100101.00;;;;5007216;28;20234;-44
2022/11/03 10:34:41;;;;;;;6.70;2.57;;;18.40;69.40;19.20;100099.00;;;;5009771;28;20172;-45
2022/11/03 10:37:21;;;;;;;20.50;3.27;;;18.40;70.60;19.20;100088.00;;;;5008765;28;20190;-47
2022/11/03 10:39:49;;;;;;;15.00;3.17;;;18.40;71.10;19.20;100087.00;;;;5009482;28;20154;-47
2022/11/03 10:42:23;;;;;;;19.50;3.20;;;18.40;71.50;19.30;100021.00;;;;4940474;28;20389;-47
2022/11/03 10:44:53;;;;;;;15.47;2.93;;;18.40;71.80;19.30;100021.00;;;;4989605;28;20203;-47
2022/11/03 10:47:33;;;;;;;16.23;3.00;;;18.40;72.10;19.30;100036.00;;;;4972020;28;20335;-46
2022/11/03 10:50:07;;;;;;;20.53;3.20;;;18.40;71.90;19.30;100042.00;;;;4989289;28;20629;-48
2022/11/03 10:52:32;;;;;;;14.67;3.00;;;18.40;71.80;19.30;100030.00;;;;4971660;28;20212;-46
2022/11/03 10:54:58;;;;;;;11.77;2.60;;;18.40;71.70;19.30;100021.00;;;;4971874;28;20184;-48
2022/11/03 10:57:24;;;;;;;9.00;2.83;;;18.40;71.50;19.30;100025.00;;;;4989523;28;20521;-47
2022/11/03 10:59:52;;;;;;;11.80;3.30;;;18.40;71.30;19.30;100017.00;;;;4985613;28;20225;-49
2022/11/03 11:02:20;;;;;;;10.07;3.00;;;18.40;71.40;19.30;100008.00;;;;4989687;28;20202;-47
2022/11/03 11:04:58;;;;;;;12.43;3.17;;;18.40;71.20;19.30;100006.00;;;;4990721;28;20213;-49
2022/11/03 11:07:33;;;;;;;9.03;2.97;;;18.40;71.00;19.30;99990.00;;;;4976621;28;20167;-47
2022/11/03 11:10:18;;;;;;;10.07;3.17;;;18.40;70.90;19.30;99970.00;;;;4991730;28;20179;-47
2022/11/03 11:13:17;;;;;;;9.43;2.90;;;18.40;71.10;19.30;99968.00;;;;4991967;28;20622;-48
2022/11/03 11:15:44;;;;;;;5.67;2.30;;;18.40;71.50;19.30;99969.00;;;;5008720;28;20171;-48
2022/11/03 11:18:10;;;;;;;8.70;2.63;;;18.40;71.30;19.30;99988.00;;;;5008601;28;20679;-48